sensor_id;sensor_type;location;lat;lon;timestamp;pressure;altitude;pressure_sealevel;temperature;humidity
16481;BME280;44634;54.110;12.138;2023-05-21T00:01:40;102014.00;;;14.78;100.00
16481;BME280;44634;54.110;12.138;2023-05-21T00:04:08;102006.31;;;14.54;100.00
16481;BME280;44634;54.110;12.138;2023-05-21T00:06:37;102010.94;;;14.83;100.00
16481;BME280;44634;54.110;12.138;2023-05-21T00:09:05;101988.03;;;14.71;100.00
16481;BME280;44634;54.110;12.138;2023-05-21T00:11:33;101989.16;;;14.68;100.00
16481;BME280;44634;54.110;12.138;2023-05-21T00:14:01;101979.44;;;14.57;100.00
16481;BME280;44634;54.110;12.138;2023-05-21T00:16:30;101964.50;;;14.66;100.00
16481;BME280;44634;54.110;12.138;2023-05-21T00:18:58;101966.03;;;14.69;100.00
16481;BME280;44634;54.110;12.138;2023-05-21T00:21:26;101965.63;;;14.73;100.00
16481;BME280;44634;54.110;12.138;2023-05-21T00:23:55;101977.03;;;14.85;100.00
16481;BME280;44634;54.110;12.138;2023-05-21T00:26:23;101961.09;;;15.04;100.00
16481;BME280;44634;54.110;12.138;2023-05-21T00:28:50;101958.22;;;14.77;100.00
16481;BME280;44634;54.110;12.138;2023-05-21T00:31:18;101969.41;;;14.71;100.00
16481;BME280;44634;54.110;12.138;2023-05-21T00:33:48;101949.03;;;14.60;100.00
16481;BME280;44634;54.110;12.138;2023-05-21T00:36:16;101926.00;;;14.80;100.00
16481;BME280;44634;54.110;12.138;2023-05-21T00:38:44;101934.38;;;14.75;100.00
16481;BME280;44634;54.110;12.138;2023-05-21T00:41:12;101927.00;;;14.79;100.00
16481;BME280;44634;54.110;12.138;2023-05-21T00:43:39;101926.31;;;14.96;100.00
16481;BME280;44634;54.110;12.138;2023-05-21T00:46:12;101922.09;;;14.84;100.00
16481;BME280;44634;54.110;12.138;2023-05-21T00:48:42;101905.50;;;14.71;100.00
16481;BME280;44634;54.110;12.138;2023-05-21T00:51:12;101906.53;;;14.79;100.00
16481;BME280;44634;54.110;12.138;2023-05-21T00:53:42;101902.69;;;14.63;100.00
16481;BME280;44634;54.110;12.138;2023-05-21T00:56:10;101889.00;;;14.77;100.00
16481;BME280;44634;54.110;12.138;2023-05-21T00:58:38;101893.03;;;14.71;100.00
16481;BME280;44634;54.110;12.138;2023-05-21T01:01:07;101889.59;;;14.90;100.00
16481;BME280;44634;54.110;12.138;2023-05-21T01:03:39;101874.47;;;14.91;100.00
16481;BME280;44634;54.110;12.138;2023-05-21T01:06:08;101893.50;;;14.86;100.00
16481;BME280;44634;54.110;12.138;2023-05-21T01:08:38;101876.09;;;14.63;100.00
16481;BME280;44634;54.110;12.138;2023-05-21T01:11:07;101863.38;;;14.85;100.00
16481;BME280;44634;54.110;12.138;2023-05-21T01:13:38;101877.53;;;14.86;100.00
16481;BME280;44634;54.110;12.138;2023-05-21T01:16:08;101865.06;;;14.77;100.00
16481;BME280;44634;54.110;12.138;2023-05-21T01:18:39;101866.97;;;14.65;100.00
16481;BME280;44634;54.110;12.138;2023-05-21T01:21:09;101856.91;;;14.69;100.00
16481;BME280;44634;54.110;12.138;2023-05-21T01:23:38;101838.22;;;14.59;100.00
16481;BME280;44634;54.110;12.138;2023-05-21T01:26:06;101845.72;;;14.84;100.00
16481;BME280;44634;54.110;12.138;2023-05-21T01:28:38;101863.00;;;15.19;100.00
16481;BME280;44634;54.110;12.138;2023-05-21T01:31:15;101856.34;;;14.84;100.00
16481;BME280;44634;54.110;12.138;2023-05-21T01:33:48;101868.25;;;14.71;100.00
16481;BME280;44634;54.110;12.138;2023-05-21T01:36:22;101855.41;;;14.95;100.00
16481;BME280;44634;54.110;12.138;2023-05-21T01:38:56;101835.63;;;14.88;100.00
16481;BME280;44634;54.110;12.138;2023-05-21T01:41:28;101841.50;;;14.82;100.00
16481;BME280;44634;54.110;12.138;2023-05-21T01:43:59;101842.78;;;14.78;100.00
16481;BME280;44634;54.110;12.138;2023-05-21T01:46:32;101832.97;;;14.78;100.00
16481;BME280;44634;54.110;12.138;2023-05-21T01:49:01;101827.66;;;15.07;100.00
16481;BME280;44634;54.110;12.138;2023-05-21T01:51:31;101819.38;;;14.81;100.00
16481;BME280;44634;54.110;12.138;2023-05-21T01:54:01;101817.38;;;14.74;100.00
16481;BME280;44634;54.110;12.138;2023-05-21T01:56:29;101808.97;;;14.69;100.00
16481;BME280;44634;54.110;12.138;2023-05-21T01:58:59;101795.53;;;14.99;100.00
16481;BME280;44634;54.110;12.138;2023-05-21T02:01:27;101799.03;;;14.80;100.00
16481;BME280;44634;54.110;12.138;2023-05-21T02:03:56;101791.19;;;14.69;100.00
16481;BME280;44634;54.110;12.138;2023-05-21T02:06:24;101779.56;;;14.80;100.00
16481;BME280;44634;54.110;12.138;2023-05-21T02:08:52;101779.16;;;14.94;100.00
16481;BME280;44634;54.110;12.138;2023-05-21T02:11:22;101780.84;;;15.05;100.00
16481;BME280;44634;54.110;12.138;2023-05-21T02:13:50;101791.19;;;14.98;100.00
16481;BME280;44634;54.110;12.138;2023-05-21T02:16:18;101786.69;;;14.89;100.00
16481;BME280;44634;54.110;12.138;2023-05-21T02:18:47;101784.47;;;15.13;100.00
16481;BME280;44634;54.110;12.138;2023-05-21T02:21:16;101795.81;;;15.15;100.00
16481;BME280;44634;54.110;12.138;2023-05-21T02:23:46;101794.28;;;15.23;100.00
16481;BME280;44634;54.110;12.138;2023-05-21T02:26:13;101795.84;;;15.06;100.00
16481;BME280;44634;54.110;12.138;2023-05-21T02:28:44;101781.38;;;15.18;100.00
16481;BME280;44634;54.110;12.138;2023-05-21T02:31:12;101780.84;;;14.95;100.00
16481;BME280;44634;54.110;12.138;2023-05-21T02:33:41;101754.63;;;15.10;100.00
16481;BME280;44634;54.110;12.138;2023-05-21T02:36:09;101742.81;;;15.03;100.00
16481;BME280;44634;54.110;12.138;2023-05-21T02:38:38;101742.44;;;14.78;100.00
16481;BME280;44634;54.110;12.138;2023-05-21T02:41:10;101740.59;;;14.88;100.00
16481;BME280;44634;54.110;12.138;2023-05-21T02:43:38;101735.69;;;15.03;100.00
16481;BME280;44634;54.110;12.138;2023-05-21T02:46:07;101733.84;;;15.04;100.00
16481;BME280;44634;54.110;12.138;2023-05-21T02:48:35;101729.94;;;14.98;100.00
16481;BME280;44634;54.110;12.138;2023-05-21T02:51:03;101703.75;;;14.84;100.00
16481;BME280;44634;54.110;12.138;2023-05-21T02:53:31;101706.41;;;14.94;100.00
16481;BME280;44634;54.110;12.138;2023-05-21T02:55:59;101712.16;;;14.79;100.00
16481;BME280;44634;54.110;12.138;2023-05-21T02:58:26;101707.59;;;15.18;100.00
16481;BME280;44634;54.110;12.138;2023-05-21T03:00:54;101686.38;;;14.80;100.00
16481;BME280;44634;54.110;12.138;2023-05-21T03:03:23;101674.31;;;14.95;100.00
16481;BME280;44634;54.110;12.138;2023-05-21T03:05:51;101688.75;;;14.93;100.00
16481;BME280;44634;54.110;12.138;2023-05-21T03:08:19;101676.59;;;14.61;100.00
16481;BME280;44634;54.110;12.138;2023-05-21T03:10:47;101662.38;;;14.89;100.00
16481;BME280;44634;54.110;12.138;2023-05-21T03:13:15;101668.63;;;15.27;100.00
16481;BME280;44634;54.110;12.138;2023-05-21T03:15:43;101694.03;;;15.12;100.00
16481;BME280;44634;54.110;12.138;2023-05-21T03:18:12;101676.44;;;14.82;100.00
16481;BME280;44634;54.110;12.138;2023-05-21T03:20:41;101652.19;;;14.85;100.00
16481;BME280;44634;54.110;12.138;2023-05-21T03:23:10;101668.38;;;15.11;100.00
16481;BME280;44634;54.110;12.138;2023-05-21T03:25:42;101653.94;;;15.04;100.00
16481;BME280;44634;54.110;12.138;2023-05-21T03:28:11;101662.22;;;15.01;100.00
16481;BME280;44634;54.110;12.138;2023-05-21T03:30:39;101658.81;;;15.28;100.00
16481;BME280;44634;54.110;12.138;2023-05-21T03:33:07;101650.13;;;15.16;100.00
16481;BME280;44634;54.110;12.138;2023-05-21T03:35:36;101645.66;;;15.54;100.00
16481;BME280;44634;54.110;12.138;2023-05-21T03:38:05;101647.44;;;15.35;100.00
16481;BME280;44634;54.110;12.138;2023-05-21T03:40:33;101627.06;;;14.87;100.00
16481;BME280;44634;54.110;12.138;2023-05-21T03:43:01;101598.63;;;14.98;100.00
16481;BME280;44634;54.110;12.138;2023-05-21T03:45:29;101612.47;;;15.38;100.00
16481;BME280;44634;54.110;12.138;2023-05-21T03:47:57;101621.19;;;15.31;100.00
16481;BME280;44634;54.110;12.138;2023-05-21T03:50:24;101617.47;;;15.24;100.00
16481;BME280;44634;54.110;12.138;2023-05-21T03:52:52;101637.31;;;15.39;100.00
16481;BME280;44634;54.110;12.138;2023-05-21T03:55:21;101630.69;;;15.43;100.00
16481;BME280;44634;54.110;12.138;2023-05-21T03:57:49;101646.03;;;15.59;100.00
16481;BME280;44634;54.110;12.138;2023-05-21T04:00:17;101645.09;;;15.60;100.00
16481;BME280;44634;54.110;12.138;2023-05-21T04:02:45;101655.88;;;15.68;100.00
16481;BME280;44634;54.110;12.138;2023-05-21T04:05:13;101635.38;;;15.59;100.00
16481;BME280;44634;54.110;12.138;2023-05-21T04:07:41;101646.84;;;15.79;100.00
16481;BME280;44634;54.110;12.138;2023-05-21T04:10:13;101639.56;;;15.71;100.00
16481;BME280;44634;54.110;12.138;2023-05-21T04:12:42;101629.94;;;15.60;100.00
16481;BME280;44634;54.110;12.138;2023-05-21T04:15:10;101640.78;;;15.76;100.00
16481;BME280;44634;54.110;12.138;2023-05-21T04:17:38;101636.78;;;15.90;100.00
16481;BME280;44634;54.110;12.138;2023-05-21T04:20:07;101640.16;;;15.92;100.00
16481;BME280;44634;54.110;12.138;2023-05-21T04:22:36;101614.50;;;15.64;100.00
16481;BME280;44634;54.110;12.138;2023-05-21T04:25:04;101605.91;;;15.70;100.00
16481;BME280;44634;54.110;12.138;2023-05-21T04:27:32;101610.09;;;15.72;100.00
16481;BME280;44634;54.110;12.138;2023-05-21T04:30:03;101628.69;;;15.82;100.00
16481;BME280;44634;54.110;12.138;2023-05-21T04:32:31;101615.44;;;15.90;100.00
16481;BME280;44634;54.110;12.138;2023-05-21T04:35:00;101623.16;;;16.11;100.00
16481;BME280;44634;54.110;12.138;2023-05-21T04:37:28;101627.44;;;16.22;100.00
16481;BME280;44634;54.110;12.138;2023-05-21T04:39:56;101612.19;;;16.14;100.00
16481;BME280;44634;54.110;12.138;2023-05-21T04:42:24;101631.16;;;16.47;100.00
16481;BME280;44634;54.110;12.138;2023-05-21T04:44:52;101642.91;;;16.54;100.00
16481;BME280;44634;54.110;12.138;2023-05-21T04:47:22;101638.31;;;16.46;100.00
16481;BME280;44634;54.110;12.138;2023-05-21T04:49:50;101620.28;;;16.40;100.00
16481;BME280;44634;54.110;12.138;2023-05-21T04:52:18;101637.66;;;16.80;100.00
16481;BME280;44634;54.110;12.138;2023-05-21T04:54:46;101670.91;;;17.11;100.00
16481;BME280;44634;54.110;12.138;2023-05-21T04:57:14;101677.09;;;17.12;100.00
16481;BME280;44634;54.110;12.138;2023-05-21T04:59:43;101678.41;;;17.08;100.00
16481;BME280;44634;54.110;12.138;2023-05-21T05:02:12;101698.06;;;17.24;100.00
16481;BME280;44634;54.110;12.138;2023-05-21T05:04:41;101668.81;;;16.97;100.00
16481;BME280;44634;54.110;12.138;2023-05-21T05:07:09;101725.38;;;17.36;100.00
16481;BME280;44634;54.110;12.138;2023-05-21T05:09:37;101705.84;;;17.44;100.00
16481;BME280;44634;54.110;12.138;2023-05-21T05:12:06;101697.47;;;17.39;100.00
16481;BME280;44634;54.110;12.138;2023-05-21T05:14:34;101706.16;;;17.67;100.00
16481;BME280;44634;54.110;12.138;2023-05-21T05:17:01;101707.78;;;17.60;100.00
16481;BME280;44634;54.110;12.138;2023-05-21T05:19:29;101709.38;;;17.70;100.00
16481;BME280;44634;54.110;12.138;2023-05-21T05:21:58;101694.50;;;17.76;100.00
16481;BME280;44634;54.110;12.138;2023-05-21T05:24:27;101709.28;;;17.88;100.00
16481;BME280;44634;54.110;12.138;2023-05-21T05:26:54;101710.53;;;18.18;100.00
16481;BME280;44634;54.110;12.138;2023-05-21T05:29:22;101708.75;;;18.43;100.00
16481;BME280;44634;54.110;12.138;2023-05-21T05:31:50;101711.94;;;18.47;100.00
16481;BME280;44634;54.110;12.138;2023-05-21T05:34:18;101723.69;;;18.62;100.00
16481;BME280;44634;54.110;12.138;2023-05-21T05:36:46;101725.41;;;18.87;100.00
16481;BME280;44634;54.110;12.138;2023-05-21T05:39:15;101729.59;;;18.82;100.00
16481;BME280;44634;54.110;12.138;2023-05-21T05:41:42;101730.41;;;19.07;100.00
16481;BME280;44634;54.110;12.138;2023-05-21T05:44:10;101748.34;;;19.14;100.00
16481;BME280;44634;54.110;12.138;2023-05-21T05:46:38;101761.91;;;19.21;100.00
16481;BME280;44634;54.110;12.138;2023-05-21T05:49:06;101764.59;;;19.13;100.00
16481;BME280;44634;54.110;12.138;2023-05-21T05:51:34;101788.97;;;19.91;100.00
16481;BME280;44634;54.110;12.138;2023-05-21T05:54:02;101807.63;;;19.52;100.00
16481;BME280;44634;54.110;12.138;2023-05-21T05:56:31;101802.94;;;19.70;100.00
16481;BME280;44634;54.110;12.138;2023-05-21T05:58:59;101804.81;;;20.17;100.00
16481;BME280;44634;54.110;12.138;2023-05-21T06:01:27;101810.59;;;19.98;100.00
16481;BME280;44634;54.110;12.138;2023-05-21T06:03:55;101816.56;;;20.08;100.00
16481;BME280;44634;54.110;12.138;2023-05-21T06:06:23;101803.72;;;20.34;100.00
16481;BME280;44634;54.110;12.138;2023-05-21T06:08:52;101804.03;;;20.47;100.00
16481;BME280;44634;54.110;12.138;2023-05-21T06:11:19;101828.44;;;20.92;100.00
16481;BME280;44634;54.110;12.138;2023-05-21T06:13:49;101815.66;;;21.17;100.00
16481;BME280;44634;54.110;12.138;2023-05-21T06:16:17;101840.72;;;21.55;100.00
16481;BME280;44634;54.110;12.138;2023-05-21T06:18:45;101855.00;;;21.93;100.00
16481;BME280;44634;54.110;12.138;2023-05-21T06:21:13;101892.91;;;22.06;100.00
16481;BME280;44634;54.110;12.138;2023-05-21T06:23:40;101889.47;;;22.12;100.00
16481;BME280;44634;54.110;12.138;2023-05-21T06:26:08;101903.13;;;22.25;100.00
16481;BME280;44634;54.110;12.138;2023-05-21T06:28:36;101910.75;;;22.22;100.00
16481;BME280;44634;54.110;12.138;2023-05-21T06:31:05;101895.41;;;22.52;100.00
16481;BME280;44634;54.110;12.138;2023-05-21T06:33:33;101879.84;;;21.80;100.00
16481;BME280;44634;54.110;12.138;2023-05-21T06:36:01;101856.16;;;21.61;100.00
16481;BME280;44634;54.110;12.138;2023-05-21T06:38:29;101832.25;;;21.28;100.00
16481;BME280;44634;54.110;12.138;2023-05-21T06:40:57;101814.16;;;21.37;100.00
16481;BME280;44634;54.110;12.138;2023-05-21T06:43:24;101826.28;;;21.56;100.00
16481;BME280;44634;54.110;12.138;2023-05-21T06:45:54;101850.72;;;21.98;100.00
16481;BME280;44634;54.110;12.138;2023-05-21T06:48:23;101881.06;;;22.66;100.00
16481;BME280;44634;54.110;12.138;2023-05-21T06:50:51;101883.66;;;21.71;100.00
16481;BME280;44634;54.110;12.138;2023-05-21T06:53:19;101875.84;;;22.43;100.00
16481;BME280;44634;54.110;12.138;2023-05-21T06:55:47;101883.44;;;22.10;100.00
16481;BME280;44634;54.110;12.138;2023-05-21T06:58:19;101896.22;;;22.67;100.00
16481;BME280;44634;54.110;12.138;2023-05-21T07:00:47;101914.03;;;22.98;100.00
16481;BME280;44634;54.110;12.138;2023-05-21T07:03:15;101928.97;;;23.36;100.00
16481;BME280;44634;54.110;12.138;2023-05-21T07:05:45;101919.63;;;22.96;100.00
16481;BME280;44634;54.110;12.138;2023-05-21T07:08:13;101902.84;;;22.65;100.00
16481;BME280;44634;54.110;12.138;2023-05-21T07:10:40;101928.25;;;23.64;100.00
16481;BME280;44634;54.110;12.138;2023-05-21T07:13:08;101920.09;;;22.70;100.00
16481;BME280;44634;54.110;12.138;2023-05-21T07:15:36;101890.88;;;23.03;100.00
16481;BME280;44634;54.110;12.138;2023-05-21T07:18:05;101892.09;;;23.01;100.00
16481;BME280;44634;54.110;12.138;2023-05-21T07:20:32;101906.78;;;22.98;100.00
16481;BME280;44634;54.110;12.138;2023-05-21T07:23:01;101904.41;;;23.10;100.00
16481;BME280;44634;54.110;12.138;2023-05-21T07:25:29;101892.75;;;23.03;100.00
16481;BME280;44634;54.110;12.138;2023-05-21T07:27:57;101909.97;;;23.44;100.00
16481;BME280;44634;54.110;12.138;2023-05-21T07:30:25;101903.00;;;23.14;100.00
16481;BME280;44634;54.110;12.138;2023-05-21T07:32:53;101909.78;;;23.67;100.00
16481;BME280;44634;54.110;12.138;2023-05-21T07:35:21;101916.00;;;23.68;100.00
16481;BME280;44634;54.110;12.138;2023-05-21T07:37:49;101928.47;;;23.90;100.00
16481;BME280;44634;54.110;12.138;2023-05-21T07:40:18;101929.34;;;23.12;100.00
16481;BME280;44634;54.110;12.138;2023-05-21T07:42:46;101926.91;;;24.09;100.00
16481;BME280;44634;54.110;12.138;2023-05-21T07:45:14;101929.19;;;24.06;100.00
16481;BME280;44634;54.110;12.138;2023-05-21T07:47:43;101921.22;;;23.97;100.00
16481;BME280;44634;54.110;12.138;2023-05-21T07:50:12;101922.66;;;24.28;100.00
16481;BME280;44634;54.110;12.138;2023-05-21T07:52:40;101930.16;;;23.98;100.00
16481;BME280;44634;54.110;12.138;2023-05-21T07:55:08;101925.28;;;24.43;100.00
16481;BME280;44634;54.110;12.138;2023-05-21T07:57:38;101928.91;;;25.11;100.00
16481;BME280;44634;54.110;12.138;2023-05-21T08:00:06;101940.50;;;24.91;100.00
16481;BME280;44634;54.110;12.138;2023-05-21T08:02:36;101949.63;;;25.51;100.00
16481;BME280;44634;54.110;12.138;2023-05-21T08:05:04;101943.97;;;25.40;100.00
16481;BME280;44634;54.110;12.138;2023-05-21T08:07:32;101945.59;;;25.21;100.00
16481;BME280;44634;54.110;12.138;2023-05-21T08:10:00;101946.50;;;25.68;100.00
16481;BME280;44634;54.110;12.138;2023-05-21T08:12:28;101951.53;;;25.71;100.00
16481;BME280;44634;54.110;12.138;2023-05-21T08:14:57;101947.16;;;25.90;100.00
16481;BME280;44634;54.110;12.138;2023-05-21T08:17:25;101950.28;;;26.06;100.00
16481;BME280;44634;54.110;12.138;2023-05-21T08:19:53;101954.91;;;26.77;100.00
16481;BME280;44634;54.110;12.138;2023-05-21T08:22:21;101958.47;;;27.22;100.00
16481;BME280;44634;54.110;12.138;2023-05-21T08:24:49;101963.41;;;26.36;100.00
16481;BME280;44634;54.110;12.138;2023-05-21T08:27:17;101956.72;;;26.19;100.00
16481;BME280;44634;54.110;12.138;2023-05-21T08:29:45;101950.66;;;26.17;100.00
16481;BME280;44634;54.110;12.138;2023-05-21T08:32:14;101953.34;;;26.50;100.00
16481;BME280;44634;54.110;12.138;2023-05-21T08:34:42;101950.28;;;26.84;100.00
16481;BME280;44634;54.110;12.138;2023-05-21T08:37:10;101960.91;;;27.37;100.00
16481;BME280;44634;54.110;12.138;2023-05-21T08:39:37;101952.47;;;27.45;100.00
16481;BME280;44634;54.110;12.138;2023-05-21T08:42:12;101976.38;;;27.30;100.00
16481;BME280;44634;54.110;12.138;2023-05-21T08:45:04;101966.69;;;26.45;100.00
16481;BME280;44634;54.110;12.138;2023-05-21T08:47:34;101965.06;;;27.02;100.00
16481;BME280;44634;54.110;12.138;2023-05-21T08:50:03;101957.22;;;27.18;100.00
16481;BME280;44634;54.110;12.138;2023-05-21T08:52:31;101969.50;;;27.27;100.00
16481;BME280;44634;54.110;12.138;2023-05-21T08:55:00;101959.53;;;27.21;100.00
16481;BME280;44634;54.110;12.138;2023-05-21T08:57:30;101966.34;;;27.31;100.00
16481;BME280;44634;54.110;12.138;2023-05-21T08:59:58;101959.63;;;27.40;100.00
16481;BME280;44634;54.110;12.138;2023-05-21T09:02:28;101958.47;;;27.54;100.00
16481;BME280;44634;54.110;12.138;2023-05-21T09:05:02;101959.66;;;27.90;100.00
16481;BME280;44634;54.110;12.138;2023-05-21T09:07:34;101958.47;;;27.54;100.00
16481;BME280;44634;54.110;12.138;2023-05-21T09:10:07;101952.91;;;27.74;100.00
16481;BME280;44634;54.110;12.138;2023-05-21T09:12:35;101955.53;;;27.55;100.00
16481;BME280;44634;54.110;12.138;2023-05-21T09:15:04;101953.06;;;28.04;100.00
16481;BME280;44634;54.110;12.138;2023-05-21T09:17:32;101953.06;;;27.47;100.00
16481;BME280;44634;54.110;12.138;2023-05-21T09:20:06;101956.75;;;27.66;100.00
16481;BME280;44634;54.110;12.138;2023-05-21T09:22:41;101953.28;;;27.77;100.00
16481;BME280;44634;54.110;12.138;2023-05-21T09:25:10;101959.50;;;27.84;100.00
16481;BME280;44634;54.110;12.138;2023-05-21T09:27:38;101961.41;;;27.84;100.00
16481;BME280;44634;54.110;12.138;2023-05-21T09:30:09;101965.94;;;26.82;100.00
16481;BME280;44634;54.110;12.138;2023-05-21T09:32:38;101954.72;;;27.48;100.00
16481;BME280;44634;54.110;12.138;2023-05-21T09:35:09;101958.50;;;28.04;100.00
16481;BME280;44634;54.110;12.138;2023-05-21T09:37:38;101964.59;;;28.24;100.00
16481;BME280;44634;54.110;12.138;2023-05-21T09:40:11;101964.34;;;28.07;100.00
16481;BME280;44634;54.110;12.138;2023-05-21T09:42:39;101963.03;;;28.35;100.00
16481;BME280;44634;54.110;12.138;2023-05-21T09:45:08;101960.31;;;28.71;100.00
16481;BME280;44634;54.110;12.138;2023-05-21T09:47:40;101961.13;;;28.72;100.00
16481;BME280;44634;54.110;12.138;2023-05-21T09:50:11;101957.13;;;28.93;100.00
16481;BME280;44634;54.110;12.138;2023-05-21T09:52:39;101968.88;;;28.93;100.00
16481;BME280;44634;54.110;12.138;2023-05-21T09:55:10;101956.44;;;29.27;100.00
16481;BME280;44634;54.110;12.138;2023-05-21T09:57:42;101956.69;;;29.26;100.00
16481;BME280;44634;54.110;12.138;2023-05-21T10:00:17;101951.31;;;28.89;100.00
16481;BME280;44634;54.110;12.138;2023-05-21T10:02:46;101948.28;;;30.04;100.00
16481;BME280;44634;54.110;12.138;2023-05-21T10:05:16;101958.72;;;29.00;100.00
16481;BME280;44634;54.110;12.138;2023-05-21T10:07:48;101946.00;;;29.54;100.00
16481;BME280;44634;54.110;12.138;2023-05-21T10:10:19;101949.50;;;30.20;98.05
16481;BME280;44634;54.110;12.138;2023-05-21T10:12:51;101941.91;;;31.14;91.04
16481;BME280;44634;54.110;12.138;2023-05-21T10:15:23;101944.13;;;30.02;94.15
16481;BME280;44634;54.110;12.138;2023-05-21T10:17:51;101936.19;;;30.00;98.34
16481;BME280;44634;54.110;12.138;2023-05-21T10:20:23;101937.44;;;29.51;100.00
16481;BME280;44634;54.110;12.138;2023-05-21T10:22:52;101938.75;;;29.48;99.16
16481;BME280;44634;54.110;12.138;2023-05-21T10:25:20;101926.94;;;30.01;98.48
16481;BME280;44634;54.110;12.138;2023-05-21T10:27:49;101926.84;;;29.84;100.00
16481;BME280;44634;54.110;12.138;2023-05-21T10:30:17;101924.13;;;30.83;90.60
16481;BME280;44634;54.110;12.138;2023-05-21T10:32:46;101924.16;;;31.62;77.72
16481;BME280;44634;54.110;12.138;2023-05-21T10:35:16;101916.84;;;31.34;80.94
16481;BME280;44634;54.110;12.138;2023-05-21T10:37:46;101916.44;;;30.57;95.52
16481;BME280;44634;54.110;12.138;2023-05-21T10:40:15;101917.44;;;31.07;95.58
16481;BME280;44634;54.110;12.138;2023-05-21T10:43:23;101920.19;;;31.07;93.91
16481;BME280;44634;54.110;12.138;2023-05-21T10:46:08;101922.00;;;31.81;81.58
16481;BME280;44634;54.110;12.138;2023-05-21T10:48:53;101918.13;;;31.60;73.26
16481;BME280;44634;54.110;12.138;2023-05-21T10:51:25;101913.41;;;31.89;72.08
16481;BME280;44634;54.110;12.138;2023-05-21T10:54:13;101908.28;;;32.14;77.66
16481;BME280;44634;54.110;12.138;2023-05-21T10:56:47;101913.06;;;31.52;66.75
16481;BME280;44634;54.110;12.138;2023-05-21T10:59:30;101908.44;;;31.07;76.95
16481;BME280;44634;54.110;12.138;2023-05-21T11:02:04;101914.34;;;30.35;83.79
16481;BME280;44634;54.110;12.138;2023-05-21T11:04:33;101919.03;;;28.56;82.49
16481;BME280;44634;54.110;12.138;2023-05-21T11:07:05;101906.91;;;29.72;83.20
16481;BME280;44634;54.110;12.138;2023-05-21T11:09:35;101905.84;;;29.85;82.59
16481;BME280;44634;54.110;12.138;2023-05-21T11:12:03;101912.25;;;30.14;82.95
16481;BME280;44634;54.110;12.138;2023-05-21T11:14:32;101912.84;;;29.27;86.34
16481;BME280;44634;54.110;12.138;2023-05-21T11:17:09;101906.81;;;30.26;79.34
16481;BME280;44634;54.110;12.138;2023-05-21T11:19:38;101916.66;;;30.15;83.29
16481;BME280;44634;54.110;12.138;2023-05-21T11:22:07;101918.31;;;29.81;88.08
16481;BME280;44634;54.110;12.138;2023-05-21T11:24:39;101919.81;;;29.65;86.79
16481;BME280;44634;54.110;12.138;2023-05-21T11:27:07;101907.97;;;29.59;88.64
16481;BME280;44634;54.110;12.138;2023-05-21T11:29:42;101920.44;;;30.26;84.28
16481;BME280;44634;54.110;12.138;2023-05-21T11:32:12;101920.53;;;30.42;79.89
16481;BME280;44634;54.110;12.138;2023-05-21T11:34:42;101906.34;;;31.59;72.54
16481;BME280;44634;54.110;12.138;2023-05-21T11:37:28;101903.63;;;30.69;74.17
16481;BME280;44634;54.110;12.138;2023-05-21T11:40:18;101909.34;;;30.56;79.68
16481;BME280;44634;54.110;12.138;2023-05-21T11:42:49;101909.69;;;30.47;77.52
16481;BME280;44634;54.110;12.138;2023-05-21T11:45:18;101910.00;;;30.74;75.80
16481;BME280;44634;54.110;12.138;2023-05-21T11:47:46;101913.03;;;30.38;71.50
16481;BME280;44634;54.110;12.138;2023-05-21T11:50:15;101913.09;;;30.26;71.49
16481;BME280;44634;54.110;12.138;2023-05-21T11:52:44;101910.34;;;30.26;74.26
16481;BME280;44634;54.110;12.138;2023-05-21T11:55:13;101917.22;;;29.58;76.55
16481;BME280;44634;54.110;12.138;2023-05-21T11:57:42;101913.78;;;29.98;72.87
16481;BME280;44634;54.110;12.138;2023-05-21T12:00:14;101922.94;;;28.97;79.30
16481;BME280;44634;54.110;12.138;2023-05-21T12:02:47;101920.59;;;29.00;86.63
16481;BME280;44634;54.110;12.138;2023-05-21T12:05:15;101914.13;;;29.13;82.66
16481;BME280;44634;54.110;12.138;2023-05-21T12:07:45;101918.47;;;29.02;86.45
16481;BME280;44634;54.110;12.138;2023-05-21T12:10:19;101912.94;;;29.21;85.40
16481;BME280;44634;54.110;12.138;2023-05-21T12:12:48;101905.84;;;29.85;80.83
16481;BME280;44634;54.110;12.138;2023-05-21T12:15:23;101908.03;;;29.41;85.12
16481;BME280;44634;54.110;12.138;2023-05-21T12:17:51;101911.16;;;29.56;85.78
16481;BME280;44634;54.110;12.138;2023-05-21T12:20:19;101915.34;;;29.82;86.40
16481;BME280;44634;54.110;12.138;2023-05-21T12:22:48;101912.41;;;30.59;77.47
16481;BME280;44634;54.110;12.138;2023-05-21T12:25:18;101892.09;;;30.95;76.78
16481;BME280;44634;54.110;12.138;2023-05-21T12:27:47;101897.44;;;30.73;80.65
16481;BME280;44634;54.110;12.138;2023-05-21T12:30:18;101895.91;;;30.66;80.53
16481;BME280;44634;54.110;12.138;2023-05-21T12:32:47;101885.53;;;31.92;73.17
16481;BME280;44634;54.110;12.138;2023-05-21T12:35:21;101889.44;;;31.62;73.10
16481;BME280;44634;54.110;12.138;2023-05-21T12:37:50;101870.84;;;32.86;66.23
16481;BME280;44634;54.110;12.138;2023-05-21T12:40:20;101877.34;;;33.06;67.61
16481;BME280;44634;54.110;12.138;2023-05-21T12:42:48;101882.75;;;32.09;71.18
16481;BME280;44634;54.110;12.138;2023-05-21T12:45:17;101865.84;;;32.55;64.97